createdAt,value
2022-11-04T00:01:57.589Z,3.30
2022-11-04T00:04:26.906Z,2.58
2022-11-04T00:06:54.432Z,2.05
2022-11-04T00:09:26.509Z,1.65
2022-11-04T00:12:12.114Z,2.90
2022-11-04T00:14:38.794Z,3.17
2022-11-04T00:17:22.336Z,2.53
2022-11-04T00:20:12.290Z,1.40
2022-11-04T00:23:00.152Z,1.67
2022-11-04T00:25:48.221Z,1.75
2022-11-04T00:28:35.479Z,3.20
2022-11-04T00:31:33.359Z,1.30
2022-11-04T00:33:59.993Z,1.45
2022-11-04T00:36:26.871Z,1.55
2022-11-04T00:38:53.746Z,1.38
2022-11-04T00:41:27.418Z,5.47
2022-11-04T00:43:58.637Z,1.60
2022-11-04T00:46:25.753Z,2.25
2022-11-04T00:48:52.673Z,5.20
2022-11-04T00:51:21.591Z,3.45
2022-11-04T00:53:48.528Z,5.10
2022-11-04T00:56:15.186Z,3.20
2022-11-04T00:58:41.914Z,2.92
2022-11-04T01:01:17.684Z,4.63
2022-11-04T01:03:45.466Z,2.22
2022-11-04T01:06:12.097Z,1.55
2022-11-04T01:08:38.716Z,3.53
2022-11-04T01:11:06.527Z,1.85
2022-11-04T01:13:33.744Z,3.10
2022-11-04T01:16:01.579Z,5.40
2022-11-04T01:18:28.250Z,4.22
2022-11-04T01:20:54.909Z,3.63
2022-11-04T01:23:21.568Z,1.73
2022-11-04T01:25:48.225Z,6.88
2022-11-04T01:28:15.468Z,3.70
2022-11-04T01:30:42.138Z,3.63
2022-11-04T01:33:08.752Z,3.55
2022-11-04T01:35:35.388Z,5.57
2022-11-04T01:38:02.016Z,2.50
2022-11-04T01:40:28.710Z,4.18
2022-11-04T01:42:55.385Z,4.38
2022-11-04T01:45:22.437Z,1.92
2022-11-04T01:47:50.875Z,2.08
2022-11-04T01:50:25.093Z,2.85
2022-11-04T01:53:08.354Z,4.53
2022-11-04T01:55:36.459Z,4.32
2022-11-04T01:58:07.188Z,6.25
2022-11-04T02:00:33.998Z,5.93
2022-11-04T02:03:11.611Z,7.68
2022-11-04T02:05:38.805Z,6.40
2022-11-04T02:08:07.035Z,4.45
2022-11-04T02:10:33.706Z,4.05
2022-11-04T02:13:02.289Z,4.38
2022-11-04T02:15:44.092Z,4.38
2022-11-04T02:18:32.574Z,6.53
2022-11-04T02:21:13.669Z,7.38
2022-11-04T02:24:09.585Z,5.63
2022-11-04T02:27:14.042Z,7.35
2022-11-04T02:30:05.010Z,5.50
2022-11-04T02:33:17.064Z,6.72
2022-11-04T02:36:06.672Z,7.82
2022-11-04T02:38:50.496Z,6.43
2022-11-04T02:41:37.341Z,6.45
2022-11-04T02:44:19.658Z,3.75
2022-11-04T02:47:02.767Z,4.72
2022-11-04T02:49:39.927Z,3.67
2022-11-04T02:52:12.535Z,3.88
2022-11-04T02:54:46.641Z,6.97
2022-11-04T02:57:16.778Z,3.72
2022-11-04T02:59:49.775Z,5.05
2022-11-04T03:02:19.472Z,3.72
2022-11-04T03:04:49.949Z,5.10
2022-11-04T03:07:29.433Z,6.15
2022-11-04T03:10:00.344Z,4.55
2022-11-04T03:12:30.595Z,6.05
2022-11-04T03:15:02.047Z,5.38
2022-11-04T03:17:31.638Z,4.43
2022-11-04T03:19:59.996Z,9.02
2022-11-04T03:22:29.788Z,6.82
2022-11-04T03:24:57.165Z,5.70
2022-11-04T03:27:35.184Z,6.53
2022-11-04T03:30:09.359Z,8.57
2022-11-04T03:33:11.792Z,5.68
2022-11-04T03:35:38.690Z,3.47
2022-11-04T03:38:05.334Z,8.57
2022-11-04T03:40:31.929Z,5.60
2022-11-04T03:43:02.847Z,6.90
2022-11-04T03:45:29.576Z,4.45
2022-11-04T03:47:56.874Z,3.92
2022-11-04T03:50:32.033Z,2.53
2022-11-04T03:52:59.414Z,4.45
2022-11-04T03:55:59.828Z,5.07
2022-11-04T03:58:58.277Z,3.08
2022-11-04T04:01:36.719Z,6.68
2022-11-04T04:04:15.158Z,7.05
2022-11-04T04:06:42.454Z,5.50
2022-11-04T04:09:25.362Z,8.93
2022-11-04T04:12:05.678Z,5.22
2022-11-04T04:14:39.313Z,3.63
2022-11-04T04:17:34.781Z,5.18
2022-11-04T04:20:06.144Z,7.47
2022-11-04T04:22:37.389Z,4.20
2022-11-04T04:25:26.101Z,2.38
2022-11-04T04:27:53.876Z,9.70
2022-11-04T04:30:20.694Z,5.07
2022-11-04T04:33:00.281Z,4.80
2022-11-04T04:35:41.926Z,10.38
2022-11-04T04:38:40.890Z,3.40
2022-11-04T04:41:32.066Z,6.57
2022-11-04T04:44:17.906Z,7.32
2022-11-04T04:46:45.605Z,9.23
2022-11-04T04:49:12.271Z,3.03
2022-11-04T04:51:41.566Z,11.18
2022-11-04T04:54:08.312Z,3.20
2022-11-04T04:56:34.957Z,2.95
2022-11-04T04:59:01.707Z,5.82
2022-11-04T05:01:28.541Z,7.32
2022-11-04T05:03:55.242Z,8.18
2022-11-04T05:06:21.904Z,6.05
2022-11-04T05:08:48.566Z,4.38
2022-11-04T05:11:15.362Z,4.88
2022-11-04T05:13:42.053Z,13.15
2022-11-04T05:16:10.762Z,9.02
2022-11-04T05:18:37.723Z,7.93
2022-11-04T05:21:06.428Z,6.90
2022-11-04T05:23:34.649Z,7.97
2022-11-04T05:26:01.504Z,8.90
2022-11-04T05:28:28.094Z,4.57
2022-11-04T05:30:54.808Z,4.85
2022-11-04T05:33:21.497Z,8.55
2022-11-04T05:35:48.147Z,8.40
2022-11-04T05:38:14.814Z,9.57
2022-11-04T05:40:41.432Z,5.63
2022-11-04T05:43:08.349Z,4.28
2022-11-04T05:45:35.030Z,10.77
2022-11-04T05:48:03.616Z,6.30
2022-11-04T05:50:31.598Z,7.82
2022-11-04T05:52:59.257Z,5.72
2022-11-04T05:55:26.569Z,7.65
2022-11-04T05:57:53.945Z,6.80
2022-11-04T06:00:20.731Z,12.05
2022-11-04T06:02:47.707Z,11.73
2022-11-04T06:05:14.439Z,8.40
2022-11-04T06:07:46.006Z,6.88
2022-11-04T06:10:14.968Z,6.50
2022-11-04T06:12:41.755Z,11.85
2022-11-04T06:15:08.872Z,11.77
2022-11-04T06:17:35.505Z,15.85
2022-11-04T06:20:02.928Z,9.05
2022-11-04T06:22:30.055Z,7.50
2022-11-04T06:24:56.781Z,7.90
2022-11-04T06:27:23.475Z,5.75
2022-11-04T06:29:50.233Z,10.98
2022-11-04T06:32:18.404Z,12.95
2022-11-04T06:34:45.862Z,12.50
2022-11-04T06:37:12.722Z,12.82
2022-11-04T06:39:39.507Z,10.70
2022-11-04T06:42:06.179Z,8.68
2022-11-04T06:44:34.520Z,11.00
2022-11-04T06:47:01.863Z,14.25
2022-11-04T06:49:28.646Z,13.88
2022-11-04T06:51:55.293Z,10.60
2022-11-04T06:54:21.854Z,7.75
2022-11-04T06:56:48.973Z,11.30
2022-11-04T06:59:18.782Z,6.75
2022-11-04T07:01:46.302Z,9.98
2022-11-04T07:04:13.124Z,8.90
2022-11-04T07:06:44.058Z,10.32
2022-11-04T07:09:13.765Z,14.82
2022-11-04T07:11:41.844Z,20.80
2022-11-04T07:14:09.217Z,10.32
2022-11-04T07:16:36.218Z,11.57
2022-11-04T07:19:03.449Z,14.68
2022-11-04T07:21:30.439Z,5.88
2022-11-04T07:23:57.339Z,10.48
2022-11-04T07:26:24.098Z,10.05
2022-11-04T07:28:50.790Z,16.25
2022-11-04T07:31:18.450Z,7.03
2022-11-04T07:33:49.823Z,10.82
2022-11-04T07:36:17.406Z,6.68
2022-11-04T07:38:44.412Z,11.93
2022-11-04T07:41:11.646Z,6.25
2022-11-04T07:43:38.390Z,6.28
2022-11-04T07:46:07.809Z,4.03
2022-11-04T07:48:36.625Z,4.88
2022-11-04T07:51:04.440Z,9.75
2022-11-04T07:53:31.419Z,6.82
2022-11-04T07:55:58.480Z,8.55
2022-11-04T07:58:25.832Z,9.32
2022-11-04T08:01:01.208Z,8.25
2022-11-04T08:03:28.097Z,10.77
2022-11-04T08:05:59.408Z,10.52
2022-11-04T08:08:27.063Z,9.68
2022-11-04T08:10:55.400Z,10.70
2022-11-04T08:13:22.034Z,9.95
2022-11-04T08:15:48.743Z,7.10
2022-11-04T08:18:15.727Z,5.68
2022-11-04T08:20:51.106Z,8.18
2022-11-04T08:23:18.677Z,4.65
2022-11-04T08:25:46.107Z,9.43
2022-11-04T08:28:17.401Z,14.05
2022-11-04T08:30:57.736Z,5.60
2022-11-04T08:33:26.490Z,4.18
2022-11-04T08:35:54.949Z,7.72
2022-11-04T08:38:21.571Z,3.72
2022-11-04T08:40:48.763Z,5.32
2022-11-04T08:43:15.635Z,7.90
2022-11-04T08:45:45.386Z,6.10
2022-11-04T08:48:13.322Z,4.25
2022-11-04T08:50:40.031Z,6.60
2022-11-04T08:53:07.170Z,5.90
2022-11-04T08:55:34.595Z,7.82
2022-11-04T08:58:02.022Z,4.95
2022-11-04T09:00:28.705Z,5.35
2022-11-04T09:02:55.712Z,8.30
2022-11-04T09:05:23.316Z,6.47
2022-11-04T09:07:50.024Z,9.32
2022-11-04T09:10:17.347Z,11.88
2022-11-04T09:12:45.118Z,6.95
2022-11-04T09:15:12.702Z,8.68
2022-11-04T09:17:40.717Z,7.57
2022-11-04T09:20:08.187Z,7.38
2022-11-04T09:22:34.866Z,10.18
2022-11-04T09:25:01.747Z,4.38
2022-11-04T09:27:28.510Z,7.30
2022-11-04T09:29:55.165Z,6.28
2022-11-04T09:32:21.789Z,7.55
2022-11-04T09:34:52.017Z,5.35
2022-11-04T09:37:22.454Z,8.35
2022-11-04T09:39:53.715Z,8.77
2022-11-04T09:42:23.695Z,7.25
2022-11-04T09:45:19.920Z,5.60
2022-11-04T09:47:41.850Z,6.53
2022-11-04T09:50:14.648Z,8.07
2022-11-04T09:52:48.305Z,9.45
2022-11-04T09:55:20.875Z,7.10
2022-11-04T09:57:55.997Z,6.00
2022-11-04T10:00:24.050Z,4.13
2022-11-04T10:02:50.607Z,6.20
2022-11-04T10:05:51.645Z,3.05
2022-11-04T10:08:38.198Z,3.80
2022-11-04T10:11:28.919Z,8.82
2022-11-04T10:14:01.560Z,5.43
2022-11-04T10:16:31.505Z,5.68
2022-11-04T10:19:07.032Z,7.10
2022-11-04T10:21:39.709Z,8.68
2022-11-04T10:24:40.776Z,9.02
2022-11-04T10:27:18.213Z,9.57
2022-11-04T10:29:47.586Z,5.20
2022-11-04T10:32:22.755Z,6.13
2022-11-04T10:35:03.009Z,6.68
2022-11-04T10:37:30.339Z,9.48
2022-11-04T10:40:40.204Z,4.50
2022-11-04T10:43:13.554Z,10.45
2022-11-04T10:46:06.033Z,6.57
2022-11-04T10:48:38.192Z,5.78
2022-11-04T10:51:04.991Z,9.85
2022-11-04T10:53:33.232Z,6.53
2022-11-04T10:56:31.406Z,8.00
2022-11-04T10:59:01.249Z,7.78
2022-11-04T11:01:29.546Z,10.32
2022-11-04T11:03:56.965Z,10.38
2022-11-04T11:06:30.218Z,5.60
2022-11-04T11:08:59.621Z,3.90
2022-11-04T11:11:48.075Z,5.30
2022-11-04T11:14:35.214Z,5.90
2022-11-04T11:17:20.657Z,9.32
2022-11-04T11:20:08.287Z,3.72
2022-11-04T11:22:38.951Z,7.50
2022-11-04T11:25:26.461Z,12.05
2022-11-04T11:28:05.357Z,7.63
2022-11-04T11:30:53.963Z,9.05
2022-11-04T11:33:29.896Z,8.05
2022-11-04T11:36:12.906Z,9.27
2022-11-04T11:38:58.421Z,12.90
2022-11-04T11:41:31.273Z,10.07
2022-11-04T11:44:23.411Z,9.15
2022-11-04T11:46:59.339Z,9.57
2022-11-04T11:49:30.375Z,6.10
2022-11-04T11:52:17.888Z,11.00
2022-11-04T11:54:47.734Z,7.43
2022-11-04T11:57:36.291Z,8.88
2022-11-04T12:03:07.809Z,9.15
2022-11-04T12:11:54.165Z,9.82
2022-11-04T12:14:46.136Z,13.88
2022-11-04T12:18:07.437Z,15.60
2022-11-04T12:20:53.866Z,5.88
2022-11-04T12:23:38.661Z,12.10
2022-11-04T12:26:17.647Z,10.65
2022-11-04T12:28:53.833Z,9.07
2022-11-04T12:31:44.813Z,6.82
2022-11-04T12:34:32.554Z,6.68
2022-11-04T12:37:14.271Z,12.40
2022-11-04T12:39:53.054Z,14.88
2022-11-04T12:42:35.820Z,10.45
2022-11-04T12:45:18.963Z,7.93
2022-11-04T12:47:47.706Z,10.35
2022-11-04T12:50:54.861Z,7.18
2022-11-04T12:53:55.054Z,14.18
2022-11-04T12:56:26.700Z,5.97
2022-11-04T12:59:25.101Z,9.63
2022-11-04T13:01:59.603Z,15.35
2022-11-04T13:04:34.409Z,13.25
2022-11-04T13:07:03.966Z,8.45
2022-11-04T13:09:35.037Z,10.25
2022-11-04T13:12:13.233Z,14.48
2022-11-04T13:15:00.121Z,16.20
2022-11-04T13:17:39.428Z,10.10
2022-11-04T13:20:15.187Z,4.95
2022-11-04T13:22:47.370Z,13.32
2022-11-04T13:25:28.730Z,13.90
2022-11-04T13:27:57.719Z,12.30
2022-11-04T13:30:39.714Z,7.55
2022-11-04T13:33:36.041Z,11.07
2022-11-04T13:36:15.648Z,11.30
2022-11-04T13:38:46.309Z,7.35
2022-11-04T13:41:28.067Z,13.88
2022-11-04T13:44:00.341Z,15.48
2022-11-04T13:46:33.738Z,9.43
2022-11-04T13:49:06.545Z,9.77
2022-11-04T13:51:42.421Z,7.65
2022-11-04T13:54:48.144Z,6.70
2022-11-04T13:57:17.815Z,8.93
2022-11-04T14:00:13.873Z,10.40
2022-11-04T14:02:47.584Z,9.93
2022-11-04T14:05:34.554Z,8.02
2022-11-04T14:08:01.320Z,8.27
2022-11-04T14:10:49.223Z,13.45
2022-11-04T14:13:28.058Z,12.65
2022-11-04T14:16:30.155Z,9.48
2022-11-04T14:18:56.791Z,13.15
2022-11-04T14:21:28.046Z,10.43
2022-11-04T14:24:02.122Z,7.57
2022-11-04T14:26:41.515Z,9.32
2022-11-04T14:29:17.285Z,11.00
2022-11-04T14:31:59.158Z,7.80
2022-11-04T14:34:28.186Z,11.13
2022-11-04T14:37:00.027Z,7.30
2022-11-04T14:39:37.549Z,9.40
2022-11-04T14:42:06.824Z,8.93
2022-11-04T14:44:41.321Z,10.45
2022-11-04T14:47:19.198Z,10.35
2022-11-04T14:49:52.182Z,6.90
2022-11-04T14:52:30.706Z,10.90
2022-11-04T14:55:04.010Z,12.55
2022-11-04T14:57:36.935Z,11.90
2022-11-04T15:00:32.081Z,7.95
2022-11-04T15:03:45.632Z,12.25
2022-11-04T15:06:03.835Z,10.13
2022-11-04T15:09:13.434Z,13.15
2022-11-04T15:11:59.143Z,9.63
2022-11-04T15:14:27.011Z,11.40
2022-11-04T15:16:57.074Z,10.40
2022-11-04T15:19:36.725Z,10.90
2022-11-04T15:22:05.067Z,18.75
2022-11-04T15:24:31.910Z,7.72
2022-11-04T15:27:05.134Z,11.18
2022-11-04T15:29:31.758Z,12.07
2022-11-04T15:32:04.553Z,15.75
2022-11-04T15:34:32.579Z,14.77
2022-11-04T15:37:04.827Z,12.38
2022-11-04T15:39:36.964Z,12.30
2022-11-04T15:42:26.189Z,15.77
2022-11-04T15:44:57.122Z,16.00
2022-11-04T15:47:26.995Z,14.30
2022-11-04T15:50:02.250Z,14.77
2022-11-04T15:52:31.087Z,11.60
2022-11-04T15:54:59.107Z,9.95
2022-11-04T15:57:28.532Z,14.93
2022-11-04T16:00:07.754Z,10.35
2022-11-04T16:02:47.448Z,12.32
2022-11-04T16:05:22.607Z,11.82
2022-11-04T16:07:51.256Z,10.35
2022-11-04T16:10:39.305Z,9.20
2022-11-04T16:13:16.047Z,15.13
2022-11-04T16:15:58.284Z,19.10
2022-11-04T16:18:31.166Z,15.65
2022-11-04T16:20:58.798Z,11.57
2022-11-04T16:23:26.472Z,9.20
2022-11-04T16:26:02.013Z,12.95
2022-11-04T16:28:31.525Z,11.80
2022-11-04T16:31:00.140Z,13.80
2022-11-04T16:33:26.833Z,11.00
2022-11-04T16:35:55.679Z,19.23
2022-11-04T16:38:22.598Z,14.63
2022-11-04T16:40:49.610Z,18.45
2022-11-04T16:43:21.596Z,13.00
2022-11-04T16:45:53.523Z,14.20
2022-11-04T16:48:21.259Z,12.15
2022-11-04T16:50:50.987Z,17.77
2022-11-04T16:53:17.900Z,19.98
2022-11-04T16:55:44.780Z,16.88
2022-11-04T16:58:17.483Z,29.08
2022-11-04T17:00:44.570Z,17.23
2022-11-04T17:03:21.561Z,16.20
2022-11-04T17:05:56.298Z,21.40
2022-11-04T17:08:25.601Z,17.25
2022-11-04T17:10:55.417Z,18.45
2022-11-04T17:13:23.923Z,15.07
2022-11-04T17:15:50.875Z,20.77
2022-11-04T17:18:18.482Z,17.02
2022-11-04T17:20:48.175Z,17.90
2022-11-04T17:23:15.978Z,23.73
2022-11-04T17:25:43.893Z,21.25
2022-11-04T17:28:11.627Z,24.00
2022-11-04T17:30:38.969Z,15.38
2022-11-04T17:33:06.867Z,15.95
2022-11-04T17:35:40.522Z,15.90
2022-11-04T17:38:08.705Z,12.15
2022-11-04T17:40:57.184Z,13.55
2022-11-04T17:43:43.959Z,18.95
2022-11-04T17:46:30.897Z,19.58
2022-11-04T17:48:58.632Z,18.83
2022-11-04T17:51:25.432Z,22.42
2022-11-04T17:53:52.291Z,15.70
2022-11-04T17:56:21.012Z,18.02
2022-11-04T17:58:48.666Z,15.27
2022-11-04T18:01:16.796Z,19.67
2022-11-04T18:03:45.729Z,13.27
2022-11-04T18:06:12.823Z,13.95
2022-11-04T18:08:39.947Z,16.92
2022-11-04T18:11:11.167Z,17.33
2022-11-04T18:13:38.094Z,13.02
2022-11-04T18:16:12.801Z,17.10
2022-11-04T18:18:40.414Z,16.55
2022-11-04T18:21:08.724Z,15.48
2022-11-04T18:23:36.090Z,15.43
2022-11-04T18:26:12.548Z,23.55
2022-11-04T18:28:41.200Z,17.60
2022-11-04T18:31:13.762Z,13.40
2022-11-04T18:33:42.609Z,16.88
2022-11-04T18:36:12.021Z,16.77
2022-11-04T18:38:40.030Z,13.95
2022-11-04T18:41:07.881Z,19.02
2022-11-04T18:43:40.524Z,17.75
2022-11-04T18:46:15.005Z,18.83
2022-11-04T18:48:42.327Z,17.65
2022-11-04T18:51:12.106Z,16.15
2022-11-04T18:53:41.050Z,15.10
2022-11-04T18:56:10.440Z,24.48
2022-11-04T18:58:40.074Z,18.08
2022-11-04T19:01:13.805Z,13.77
2022-11-04T19:03:41.097Z,12.63
2022-11-04T19:06:10.393Z,17.77
2022-11-04T19:08:39.929Z,17.30
2022-11-04T19:11:19.869Z,17.83
2022-11-04T19:14:14.802Z,16.70
2022-11-04T19:16:42.894Z,23.10
2022-11-04T19:19:11.978Z,25.33
2022-11-04T19:21:38.773Z,18.00
2022-11-04T19:24:08.169Z,23.15
2022-11-04T19:26:35.768Z,22.45
2022-11-04T19:29:06.363Z,23.20
2022-11-04T19:31:33.563Z,24.48
2022-11-04T19:34:04.703Z,21.73
2022-11-04T19:36:35.486Z,29.02
2022-11-04T19:39:05.341Z,19.45
2022-11-04T19:41:50.788Z,31.70
2022-11-04T19:44:20.138Z,24.45
2022-11-04T19:46:49.712Z,27.55
2022-11-04T19:49:17.000Z,22.50
2022-11-04T19:51:46.563Z,34.00
2022-11-04T19:54:13.687Z,31.17
2022-11-04T19:56:41.287Z,31.30
2022-11-04T19:59:09.155Z,27.35
2022-11-04T20:01:36.076Z,27.67
2022-11-04T20:04:04.057Z,28.90
2022-11-04T20:06:32.344Z,29.67
2022-11-04T20:09:06.780Z,28.30
2022-11-04T20:11:56.661Z,26.70
2022-11-04T20:14:24.513Z,35.22
2022-11-04T20:16:51.842Z,35.40
2022-11-04T20:19:22.700Z,25.45
2022-11-04T20:21:49.872Z,30.55
2022-11-04T20:24:16.971Z,33.00
2022-11-04T20:26:45.185Z,27.90
2022-11-04T20:29:12.195Z,27.17
2022-11-04T20:31:40.666Z,29.67
2022-11-04T20:34:09.359Z,31.10
2022-11-04T20:36:37.070Z,32.08
2022-11-04T20:39:15.400Z,34.20
2022-11-04T20:41:42.864Z,30.25
2022-11-04T20:44:15.653Z,28.83
2022-11-04T20:46:44.385Z,29.80
2022-11-04T20:49:11.571Z,30.55
2022-11-04T20:51:50.259Z,28.60
2022-11-04T20:54:21.963Z,35.38
2022-11-04T20:56:48.668Z,34.10
2022-11-04T20:59:15.526Z,32.35
2022-11-04T21:01:44.787Z,29.30
2022-11-04T21:04:19.879Z,34.20
2022-11-04T21:06:49.179Z,33.25
2022-11-04T21:09:17.829Z,31.13
2022-11-04T21:11:46.743Z,37.60
2022-11-04T21:14:18.079Z,41.70
2022-11-04T21:16:45.223Z,47.65
2022-11-04T21:19:13.431Z,47.88
2022-11-04T21:21:41.929Z,33.55
2022-11-04T21:24:11.566Z,47.50
2022-11-04T21:26:43.754Z,34.72
2022-11-04T21:29:14.834Z,41.88
2022-11-04T21:31:52.793Z,36.95
2022-11-04T21:34:24.114Z,39.05
2022-11-04T21:36:51.827Z,36.03
2022-11-04T21:39:21.657Z,31.58
2022-11-04T21:41:49.684Z,40.40
2022-11-04T21:44:17.691Z,37.22
2022-11-04T21:46:46.411Z,37.15
2022-11-04T21:49:13.239Z,39.13
2022-11-04T21:51:40.338Z,39.38
2022-11-04T21:54:07.191Z,45.28
2022-11-04T21:56:34.391Z,35.92
2022-11-04T21:59:01.554Z,35.88
2022-11-04T22:01:30.103Z,40.28
2022-11-04T22:03:59.649Z,39.38
2022-11-04T22:06:34.202Z,40.08
2022-11-04T22:09:04.027Z,42.60
2022-11-04T22:11:32.110Z,44.17
2022-11-04T22:14:04.374Z,40.10
2022-11-04T22:16:33.864Z,39.30
2022-11-04T22:19:02.931Z,34.85
2022-11-04T22:21:31.903Z,39.50
2022-11-04T22:23:59.444Z,36.85
2022-11-04T22:26:28.458Z,41.25
2022-11-04T22:28:55.907Z,41.88
2022-11-04T22:31:28.533Z,36.95
2022-11-04T22:33:55.925Z,41.53
2022-11-04T22:36:25.952Z,40.95
2022-11-04T22:38:52.675Z,39.88
2022-11-04T22:41:22.409Z,41.83
2022-11-04T22:43:49.583Z,37.60
2022-11-04T22:46:19.270Z,44.88
2022-11-04T22:48:45.927Z,37.00
2022-11-04T22:51:12.894Z,43.53
2022-11-04T22:53:40.215Z,43.72
2022-11-04T22:56:08.316Z,41.67
2022-11-04T22:58:35.327Z,49.92
2022-11-04T23:01:05.412Z,37.97
2022-11-04T23:03:32.533Z,44.58
2022-11-04T23:06:00.922Z,44.22
2022-11-04T23:08:29.684Z,40.90
2022-11-04T23:11:22.486Z,41.55
2022-11-04T23:14:14.401Z,38.58
2022-11-04T23:17:06.516Z,47.67
2022-11-04T23:19:33.155Z,35.70
2022-11-04T23:22:18.423Z,37.15
2022-11-04T23:25:03.578Z,39.88
2022-11-04T23:27:50.538Z,37.13
2022-11-04T23:30:25.522Z,34.80
2022-11-04T23:32:58.309Z,41.08
2022-11-04T23:35:52.183Z,38.22
2022-11-04T23:38:19.562Z,33.72
2022-11-04T23:41:07.639Z,40.97
2022-11-04T23:43:34.977Z,34.25
2022-11-04T23:46:20.645Z,40.35
2022-11-04T23:49:05.668Z,35.65
2022-11-04T23:51:51.556Z,35.22
2022-11-04T23:54:36.632Z,48.88
2022-11-04T23:57:30.785Z,42.30
